Norwegian Spirit — C6TQ6 — position and weather

sailwx.info

Track history (hours):
 
Tides and Currents Weather Stations Pressure Air Temp Water Temp Dewpoint Dewpoint Depression Visibility Wind Speed Wind Dir Waves Ship Positions

Norwegian Spirit

Operator: Norwegian Cruise Line

Last reported at 2019-Dec-12 06:00 UTC. Time now 2019-Dec-12 08:14 UTC.
Position N 34°00' E 030°48'.

Type: Passenger vessel. MMSI: 311746000.

Wind from 190 at 25 knots

Barometer 1007.0 mb
Air temperature 18.0 ° C
Visibility: greater than 5.4 NM
Water temperature 22.0 ° C

Date/timePositionNaut miles runAvg speedWind from/ knotsBaromVisibWave heightAir tempDewpointWater temp
2019-Dec-12 06:00N 34°00' E 030°48'10120.3 190 / 251007.0 5.4 18.0 22.0
2019-Dec-12 01:00N 33°24' E 032°42'7919.8 210 / 221008.010.8 18.016.419.0
2019-Dec-11 21:00N 33°00' E 034°12'3120.9 180 / 14
2019-Dec-11 19:31N 32°56' E 034°49'12 0.5
2019-Dec-10 20:26N 32°49' E 035°00'1 0.1
2019-Dec-10 03:22N 32°50' E 035°01'2 4.7
2019-Dec-10 03:00N 32°51' E 035°01'8 7.2
2019-Dec-10 01:57N 32°52' E 034°52'1313.1
2019-Dec-10 01:00N 32°42' E 034°42'26 8.5 100 / 31012.010.8 17.013.719.0
2019-Dec-09 21:53N 32°17' E 034°33'2412.6
2019-Dec-09 20:00N 31°54' E 034°24'102 4.4 300 / 14
2019-Dec-08 21:00N 33°30' E 033°42'1615.6 270 / 15
2019-Dec-08 20:00N 33°42' E 033°30'4418.3 270 / 17
2019-Dec-08 17:35N 34°24' E 033°13'1017.4
2019-Dec-08 17:00N 34°33' E 033°08'8 2.1
2019-Dec-08 12:58N 34°39' E 033°01'0 0.0
2019-Dec-08 10:58N 34°39' E 033°01'0 0.0
2019-Dec-08 09:58N 34°39' E 033°01'0 0.0
2019-Dec-08 08:58N 34°39' E 033°01'27 5.5
2019-Dec-08 04:00N 34°30' E 032°30'2713.7 270 / 91015.0 2.2 16.010.822.0
2019-Dec-08 02:00N 34°42' E 032°00'12320.6 310 / 111014.010.8 17.013.716.0
2019-Dec-07 20:00N 35°42' E 029°48'5418.1 300 / 12
2019-Dec-07 17:00N 36°06' E 028°48'72 4.8 310 / 131025.0 2.2 16.010.821.0
2019-Dec-07 02:00N 36°30' E 027°24'10 9.6 360 / 12 12.010.2
2019-Dec-07 01:00N 36°30' E 027°12'6512.9 360 / 141021.010.8 14.0 8.518.0
2019-Dec-06 20:00N 37°18' E 026°18'57 2.6 010 / 18
2019-Dec-05 22:31N 37°30' E 025°08'4919.6
2019-Dec-05 20:00N 37°30' E 024°06'1021.0 020 / 40
2019-Dec-05 19:30N 37°35' E 023°55'1918.7
2019-Dec-05 18:31N 37°48' E 023°38'8 8.1
2019-Dec-05 17:30N 37°56' E 023°37'0 0.0
2019-Dec-05 16:30N 37°56' E 023°37'0 0.0
2019-Dec-05 15:30N 37°56' E 023°37'0 0.0
2019-Dec-05 13:30N 37°56' E 023°37'0 0.0
2019-Dec-05 12:54N 37°56' E 023°37'0 0.0
2019-Dec-05 09:00N 37°56' E 023°37'0 0.0
2019-Dec-05 06:00N 37°56' E 023°37'0 0.0
2019-Dec-05 05:30N 37°56' E 023°37'0 0.5
2019-Dec-05 05:00N 37°56' E 023°37'3411.3
2019-Dec-05 02:00N 37°23' E 023°45'9515.8
2019-Dec-04 20:00N 36°18' E 022°18'23419.5 050 / 80
2019-Dec-04 08:00N 37°18' E 017°36'7518.8 040 / 351016.0 16.0 19.0
2019-Dec-04 04:00N 37°45' E 016°08'918.6
2019-Dec-04 03:30N 37°48' E 015°57'1818.4
2019-Dec-04 02:30N 37°57' E 015°36'1019.1
2019-Dec-04 02:00N 38°07' E 015°35'2315.4
2019-Dec-04 00:30N 38°30' E 015°35'2020.1
2019-Dec-03 23:30N 38°48' E 015°24'2818.3
2019-Dec-03 22:00N 39°12' E 015°06'2020.3 080 / 15
2019-Dec-03 21:00N 39°30' E 014°54'7919.9 080 / 15
2019-Dec-03 17:00N 40°44' E 014°17'6 3.2
2019-Dec-03 14:57N 40°50' E 014°16'0 0.0
2019-Dec-03 13:30N 40°50' E 014°16'0 0.0
2019-Dec-03 11:30N 40°50' E 014°16'0 0.0
2019-Dec-03 09:30N 40°50' E 014°16'0 0.0
2019-Dec-03 09:00N 40°50' E 014°16'0 0.0
2019-Dec-03 08:30N 40°50' E 014°16'0 0.0
2019-Dec-03 07:30N 40°50' E 014°16'0 0.0
2019-Dec-03 06:30N 40°50' E 014°16'0 0.2
2019-Dec-03 05:30N 40°50' E 014°16'7 7.2
2019-Dec-03 04:30N 40°43' E 014°13'612.1
2019-Dec-03 04:01N 40°40' E 014°06'612.7
2019-Dec-03 03:30N 40°38' E 013°59'7912.2
2019-Dec-02 21:00N 41°12' E 012°24'   210 / 30
Track history (hours):
 
Tides and Currents Weather Stations Pressure Air Temp Water Temp Dewpoint Dewpoint Depression Visibility Wind Speed Wind Dir Waves Ship Positions

Norwegian Spirit

Operator: Norwegian Cruise Line

Last reported at 2019-Dec-12 06:00 UTC. Time now 2019-Dec-12 08:14 UTC.
Position N 34°00' E 030°48'.

Type: Passenger vessel. MMSI: 311746000.

Wind from 190 at 25 knots

Barometer 1007.0 mb
Air temperature 18.0 ° C
Visibility: greater than 5.4 NM
Water temperature 22.0 ° C

Date/timePositionNaut miles runAvg speedWind from/ knotsBaromVisibWave heightAir tempDewpointWater temp
2019-Dec-12 06:00N 34°00' E 030°48'10120.3 190 / 251007.0 5.4 18.0 22.0
2019-Dec-12 01:00N 33°24' E 032°42'7919.8 210 / 221008.010.8 18.016.419.0
2019-Dec-11 21:00N 33°00' E 034°12'3120.9 180 / 14
2019-Dec-11 19:31N 32°56' E 034°49'12 0.5
2019-Dec-10 20:26N 32°49' E 035°00'1 0.1
2019-Dec-10 03:22N 32°50' E 035°01'2 4.7
2019-Dec-10 03:00N 32°51' E 035°01'8 7.2
2019-Dec-10 01:57N 32°52' E 034°52'1313.1
2019-Dec-10 01:00N 32°42' E 034°42'26 8.5 100 / 31012.010.8 17.013.719.0
2019-Dec-09 21:53N 32°17' E 034°33'2412.6
2019-Dec-09 20:00N 31°54' E 034°24'102 4.4 300 / 14
2019-Dec-08 21:00N 33°30' E 033°42'1615.6 270 / 15
2019-Dec-08 20:00N 33°42' E 033°30'4418.3 270 / 17
2019-Dec-08 17:35N 34°24' E 033°13'1017.4
2019-Dec-08 17:00N 34°33' E 033°08'8 2.1
2019-Dec-08 12:58N 34°39' E 033°01'0 0.0
2019-Dec-08 10:58N 34°39' E 033°01'0 0.0
2019-Dec-08 09:58N 34°39' E 033°01'0 0.0
2019-Dec-08 08:58N 34°39' E 033°01'27 5.5
2019-Dec-08 04:00N 34°30' E 032°30'2713.7 270 / 91015.0 2.2 16.010.822.0
2019-Dec-08 02:00N 34°42' E 032°00'12320.6 310 / 111014.010.8 17.013.716.0
2019-Dec-07 20:00N 35°42' E 029°48'5418.1 300 / 12
2019-Dec-07 17:00N 36°06' E 028°48'72 4.8 310 / 131025.0 2.2 16.010.821.0
2019-Dec-07 02:00N 36°30' E 027°24'10 9.6 360 / 12 12.010.2
2019-Dec-07 01:00N 36°30' E 027°12'6512.9 360 / 141021.010.8 14.0 8.518.0
2019-Dec-06 20:00N 37°18' E 026°18'57 2.6 010 / 18
2019-Dec-05 22:31N 37°30' E 025°08'4919.6
2019-Dec-05 20:00N 37°30' E 024°06'1021.0 020 / 40
2019-Dec-05 19:30N 37°35' E 023°55'1918.7
2019-Dec-05 18:31N 37°48' E 023°38'8 8.1
2019-Dec-05 17:30N 37°56' E 023°37'0 0.0
2019-Dec-05 16:30N 37°56' E 023°37'0 0.0
2019-Dec-05 15:30N 37°56' E 023°37'0 0.0
2019-Dec-05 13:30N 37°56' E 023°37'0 0.0
2019-Dec-05 12:54N 37°56' E 023°37'0 0.0
2019-Dec-05 09:00N 37°56' E 023°37'0 0.0
2019-Dec-05 06:00N 37°56' E 023°37'0 0.0
2019-Dec-05 05:30N 37°56' E 023°37'0 0.5
2019-Dec-05 05:00N 37°56' E 023°37'3411.3
2019-Dec-05 02:00N 37°23' E 023°45'9515.8
2019-Dec-04 20:00N 36°18' E 022°18'23419.5 050 / 80
2019-Dec-04 08:00N 37°18' E 017°36'7518.8 040 / 351016.0 16.0 19.0
2019-Dec-04 04:00N 37°45' E 016°08'918.6
2019-Dec-04 03:30N 37°48' E 015°57'1818.4
2019-Dec-04 02:30N 37°57' E 015°36'1019.1
2019-Dec-04 02:00N 38°07' E 015°35'2315.4
2019-Dec-04 00:30N 38°30' E 015°35'2020.1
2019-Dec-03 23:30N 38°48' E 015°24'2818.3
2019-Dec-03 22:00N 39°12' E 015°06'2020.3 080 / 15
2019-Dec-03 21:00N 39°30' E 014°54'7919.9 080 / 15
2019-Dec-03 17:00N 40°44' E 014°17'6 3.2
2019-Dec-03 14:57N 40°50' E 014°16'0 0.0
2019-Dec-03 13:30N 40°50' E 014°16'0 0.0
2019-Dec-03 11:30N 40°50' E 014°16'0 0.0
2019-Dec-03 09:30N 40°50' E 014°16'0 0.0
2019-Dec-03 09:00N 40°50' E 014°16'0 0.0
2019-Dec-03 08:30N 40°50' E 014°16'0 0.0
2019-Dec-03 07:30N 40°50' E 014°16'0 0.0
2019-Dec-03 06:30N 40°50' E 014°16'0 0.2
2019-Dec-03 05:30N 40°50' E 014°16'7 7.2
2019-Dec-03 04:30N 40°43' E 014°13'612.1
2019-Dec-03 04:01N 40°40' E 014°06'612.7
2019-Dec-03 03:30N 40°38' E 013°59'7912.2
2019-Dec-02 21:00N 41°12' E 012°24'   210 / 30

Dump ship's entire track history